Terminal Aerodrome Forecast
Issued by NWS

Current Version | Previous Version | Text Only | Print | Product List | Glossary On
Versions: 1 2 3 4 5 6 7 8 9 10 11 12 13 14 15
000
FTUS46 KLOX 282300 RRA
TAFWJF
TAF
KWJF 282351Z 2900/2924 24014G20KT P6SM SKC
     FM290200 26012KT P6SM SKC
     FM290700 27008KT P6SM SKC
     FM291800 25012KT P6SM SKC
     FM292100 25019G29KT P6SM SCT250=

USA.gov is the U.S. government's official web portal to all federal, state and local government web resources and services.